sensor_id;sensor_type;location;lat;lon;timestamp;temperature;humidity
7972;DHT22;4031;49.758;6.120;2023-07-31T00:02:18;17.50;99.90
7972;DHT22;4031;49.758;6.120;2023-07-31T00:04:43;17.40;99.90
7972;DHT22;4031;49.758;6.120;2023-07-31T00:07:09;17.40;99.90
7972;DHT22;4031;49.758;6.120;2023-07-31T00:09:35;17.40;99.90
7972;DHT22;4031;49.758;6.120;2023-07-31T00:12:01;17.40;99.90
7972;DHT22;4031;49.758;6.120;2023-07-31T00:14:27;17.40;99.90
7972;DHT22;4031;49.758;6.120;2023-07-31T00:16:53;17.30;99.90
7972;DHT22;4031;49.758;6.120;2023-07-31T00:19:19;17.30;99.90
7972;DHT22;4031;49.758;6.120;2023-07-31T00:21:44;17.30;99.90
7972;DHT22;4031;49.758;6.120;2023-07-31T00:24:10;17.30;99.90
7972;DHT22;4031;49.758;6.120;2023-07-31T00:26:36;17.20;99.90
7972;DHT22;4031;49.758;6.120;2023-07-31T00:29:02;17.10;99.90
7972;DHT22;4031;49.758;6.120;2023-07-31T00:31:27;17.10;99.90
7972;DHT22;4031;49.758;6.120;2023-07-31T00:33:53;17.10;99.90
7972;DHT22;4031;49.758;6.120;2023-07-31T00:36:19;17.10;99.90
7972;DHT22;4031;49.758;6.120;2023-07-31T00:38:44;17.10;99.90
7972;DHT22;4031;49.758;6.120;2023-07-31T00:41:10;17.10;99.90
7972;DHT22;4031;49.758;6.120;2023-07-31T00:43:36;17.10;99.90
7972;DHT22;4031;49.758;6.120;2023-07-31T00:46:02;17.10;99.90
7972;DHT22;4031;49.758;6.120;2023-07-31T00:48:28;17.10;99.90
7972;DHT22;4031;49.758;6.120;2023-07-31T00:50:54;17.10;99.90
7972;DHT22;4031;49.758;6.120;2023-07-31T00:53:19;17.00;99.90
7972;DHT22;4031;49.758;6.120;2023-07-31T00:55:45;17.10;99.90
7972;DHT22;4031;49.758;6.120;2023-07-31T00:58:11;17.10;99.90
7972;DHT22;4031;49.758;6.120;2023-07-31T01:00:37;17.10;99.90
7972;DHT22;4031;49.758;6.120;2023-07-31T01:03:03;17.00;99.90
7972;DHT22;4031;49.758;6.120;2023-07-31T01:05:43;17.00;99.90
7972;DHT22;4031;49.758;6.120;2023-07-31T01:10:59;17.00;99.90
7972;DHT22;4031;49.758;6.120;2023-07-31T01:13:28;17.00;99.90
7972;DHT22;4031;49.758;6.120;2023-07-31T01:15:54;16.90;99.90
7972;DHT22;4031;49.758;6.120;2023-07-31T01:18:20;16.90;99.90
7972;DHT22;4031;49.758;6.120;2023-07-31T01:21:06;16.90;99.90
7972;DHT22;4031;49.758;6.120;2023-07-31T01:27:15;16.90;99.90
7972;DHT22;4031;49.758;6.120;2023-07-31T01:29:47;16.90;99.90
7972;DHT22;4031;49.758;6.120;2023-07-31T01:32:15;16.90;99.90
7972;DHT22;4031;49.758;6.120;2023-07-31T01:34:44;16.90;99.90
7972;DHT22;4031;49.758;6.120;2023-07-31T01:37:10;16.90;99.90
7972;DHT22;4031;49.758;6.120;2023-07-31T01:39:35;16.80;99.90
7972;DHT22;4031;49.758;6.120;2023-07-31T01:42:01;16.80;99.90
7972;DHT22;4031;49.758;6.120;2023-07-31T01:44:27;16.80;99.90
7972;DHT22;4031;49.758;6.120;2023-07-31T01:46:53;16.90;99.90
7972;DHT22;4031;49.758;6.120;2023-07-31T01:49:19;16.80;99.90
7972;DHT22;4031;49.758;6.120;2023-07-31T01:51:44;16.70;99.90
7972;DHT22;4031;49.758;6.120;2023-07-31T01:54:10;16.70;99.90
7972;DHT22;4031;49.758;6.120;2023-07-31T01:56:36;16.70;99.90
7972;DHT22;4031;49.758;6.120;2023-07-31T01:59:02;16.70;99.90
7972;DHT22;4031;49.758;6.120;2023-07-31T02:01:28;16.70;99.90
7972;DHT22;4031;49.758;6.120;2023-07-31T02:03:53;16.70;99.90
7972;DHT22;4031;49.758;6.120;2023-07-31T02:06:19;16.60;99.90
7972;DHT22;4031;49.758;6.120;2023-07-31T02:08:45;16.60;99.90
7972;DHT22;4031;49.758;6.120;2023-07-31T02:11:11;16.60;99.90
7972;DHT22;4031;49.758;6.120;2023-07-31T02:13:36;16.60;99.90
7972;DHT22;4031;49.758;6.120;2023-07-31T02:16:02;16.60;99.90
7972;DHT22;4031;49.758;6.120;2023-07-31T02:18:28;16.60;99.90
7972;DHT22;4031;49.758;6.120;2023-07-31T02:20:53;16.60;99.90
7972;DHT22;4031;49.758;6.120;2023-07-31T02:23:19;16.60;99.90
7972;DHT22;4031;49.758;6.120;2023-07-31T02:25:45;16.50;99.90
7972;DHT22;4031;49.758;6.120;2023-07-31T02:28:11;16.50;99.90
7972;DHT22;4031;49.758;6.120;2023-07-31T02:30:38;16.50;99.90
7972;DHT22;4031;49.758;6.120;2023-07-31T02:33:04;16.50;99.90
7972;DHT22;4031;49.758;6.120;2023-07-31T02:35:30;16.50;99.90
7972;DHT22;4031;49.758;6.120;2023-07-31T02:37:56;16.50;99.90
7972;DHT22;4031;49.758;6.120;2023-07-31T02:40:22;16.50;99.90
7972;DHT22;4031;49.758;6.120;2023-07-31T02:42:48;16.60;99.90
7972;DHT22;4031;49.758;6.120;2023-07-31T02:45:14;16.60;99.90
7972;DHT22;4031;49.758;6.120;2023-07-31T02:47:40;16.60;99.90
7972;DHT22;4031;49.758;6.120;2023-07-31T02:50:06;16.50;99.90
7972;DHT22;4031;49.758;6.120;2023-07-31T02:52:32;16.50;99.90
7972;DHT22;4031;49.758;6.120;2023-07-31T02:54:58;16.50;99.90
7972;DHT22;4031;49.758;6.120;2023-07-31T02:57:24;16.50;99.90
7972;DHT22;4031;49.758;6.120;2023-07-31T02:59:49;16.50;99.90
7972;DHT22;4031;49.758;6.120;2023-07-31T03:02:15;16.50;99.90
7972;DHT22;4031;49.758;6.120;2023-07-31T03:04:41;16.60;99.90
7972;DHT22;4031;49.758;6.120;2023-07-31T03:07:06;16.60;99.90
7972;DHT22;4031;49.758;6.120;2023-07-31T03:09:32;16.60;99.90
7972;DHT22;4031;49.758;6.120;2023-07-31T03:11:58;16.50;99.90
7972;DHT22;4031;49.758;6.120;2023-07-31T03:14:23;16.50;99.90
7972;DHT22;4031;49.758;6.120;2023-07-31T03:16:51;16.50;99.90
7972;DHT22;4031;49.758;6.120;2023-07-31T03:19:17;16.50;99.90
7972;DHT22;4031;49.758;6.120;2023-07-31T03:21:43;16.60;99.90
7972;DHT22;4031;49.758;6.120;2023-07-31T03:24:09;16.50;99.90
7972;DHT22;4031;49.758;6.120;2023-07-31T03:26:34;16.50;99.90
7972;DHT22;4031;49.758;6.120;2023-07-31T03:29:01;16.50;99.90
7972;DHT22;4031;49.758;6.120;2023-07-31T03:31:27;16.50;99.90
7972;DHT22;4031;49.758;6.120;2023-07-31T03:33:53;16.40;99.90
7972;DHT22;4031;49.758;6.120;2023-07-31T03:36:18;16.40;99.90
7972;DHT22;4031;49.758;6.120;2023-07-31T03:38:45;16.40;99.90
7972;DHT22;4031;49.758;6.120;2023-07-31T03:41:11;16.40;99.90
7972;DHT22;4031;49.758;6.120;2023-07-31T03:43:37;16.30;99.90
7972;DHT22;4031;49.758;6.120;2023-07-31T03:46:03;16.30;99.90
7972;DHT22;4031;49.758;6.120;2023-07-31T03:48:29;16.20;99.90
7972;DHT22;4031;49.758;6.120;2023-07-31T03:50:55;16.10;99.90
7972;DHT22;4031;49.758;6.120;2023-07-31T03:53:21;16.10;99.90
7972;DHT22;4031;49.758;6.120;2023-07-31T03:55:46;16.00;99.90
7972;DHT22;4031;49.758;6.120;2023-07-31T03:58:12;16.00;99.90
7972;DHT22;4031;49.758;6.120;2023-07-31T04:00:40;15.90;99.90
7972;DHT22;4031;49.758;6.120;2023-07-31T04:03:06;15.90;99.90
7972;DHT22;4031;49.758;6.120;2023-07-31T04:05:32;15.90;99.90
7972;DHT22;4031;49.758;6.120;2023-07-31T04:07:58;16.00;99.90
7972;DHT22;4031;49.758;6.120;2023-07-31T04:10:24;16.00;99.90
7972;DHT22;4031;49.758;6.120;2023-07-31T04:12:50;16.10;99.90
7972;DHT22;4031;49.758;6.120;2023-07-31T04:15:15;16.10;99.90
7972;DHT22;4031;49.758;6.120;2023-07-31T04:17:41;16.10;99.90
7972;DHT22;4031;49.758;6.120;2023-07-31T04:20:07;16.20;99.90
7972;DHT22;4031;49.758;6.120;2023-07-31T04:22:33;16.20;99.90
7972;DHT22;4031;49.758;6.120;2023-07-31T04:24:59;16.20;99.90
7972;DHT22;4031;49.758;6.120;2023-07-31T04:27:25;16.30;99.90
7972;DHT22;4031;49.758;6.120;2023-07-31T04:29:50;16.30;99.90
7972;DHT22;4031;49.758;6.120;2023-07-31T04:32:16;16.30;99.90
7972;DHT22;4031;49.758;6.120;2023-07-31T04:34:43;16.30;99.90
7972;DHT22;4031;49.758;6.120;2023-07-31T04:37:09;16.30;99.90
7972;DHT22;4031;49.758;6.120;2023-07-31T04:39:34;16.30;99.90
7972;DHT22;4031;49.758;6.120;2023-07-31T04:42:00;16.30;99.90
7972;DHT22;4031;49.758;6.120;2023-07-31T04:44:26;16.40;99.90
7972;DHT22;4031;49.758;6.120;2023-07-31T04:46:51;16.40;99.90
7972;DHT22;4031;49.758;6.120;2023-07-31T04:49:17;16.40;99.90
7972;DHT22;4031;49.758;6.120;2023-07-31T04:51:44;16.40;99.90
7972;DHT22;4031;49.758;6.120;2023-07-31T04:54:10;16.50;99.90
7972;DHT22;4031;49.758;6.120;2023-07-31T04:56:38;16.50;99.90
7972;DHT22;4031;49.758;6.120;2023-07-31T04:59:03;16.50;99.90
7972;DHT22;4031;49.758;6.120;2023-07-31T05:01:29;16.60;99.90
7972;DHT22;4031;49.758;6.120;2023-07-31T05:03:55;16.60;99.90
7972;DHT22;4031;49.758;6.120;2023-07-31T05:06:21;16.70;99.90
7972;DHT22;4031;49.758;6.120;2023-07-31T05:08:46;16.70;99.90
7972;DHT22;4031;49.758;6.120;2023-07-31T05:11:12;16.80;99.90
7972;DHT22;4031;49.758;6.120;2023-07-31T05:13:38;16.80;99.90
7972;DHT22;4031;49.758;6.120;2023-07-31T05:16:03;16.90;99.90
7972;DHT22;4031;49.758;6.120;2023-07-31T05:18:29;16.90;99.90
7972;DHT22;4031;49.758;6.120;2023-07-31T05:20:55;16.90;99.90
7972;DHT22;4031;49.758;6.120;2023-07-31T05:23:20;16.90;99.90
7972;DHT22;4031;49.758;6.120;2023-07-31T05:25:46;16.80;99.90
7972;DHT22;4031;49.758;6.120;2023-07-31T05:28:12;16.90;99.90
7972;DHT22;4031;49.758;6.120;2023-07-31T05:30:38;16.90;99.90
7972;DHT22;4031;49.758;6.120;2023-07-31T05:33:04;16.90;99.90
7972;DHT22;4031;49.758;6.120;2023-07-31T05:35:30;17.00;99.90
7972;DHT22;4031;49.758;6.120;2023-07-31T05:37:55;17.10;99.90
7972;DHT22;4031;49.758;6.120;2023-07-31T05:40:21;17.20;99.90
7972;DHT22;4031;49.758;6.120;2023-07-31T05:42:47;17.40;99.90
7972;DHT22;4031;49.758;6.120;2023-07-31T05:45:12;17.50;99.90
7972;DHT22;4031;49.758;6.120;2023-07-31T05:47:39;17.60;99.90
7972;DHT22;4031;49.758;6.120;2023-07-31T05:50:05;17.70;99.90
7972;DHT22;4031;49.758;6.120;2023-07-31T05:52:31;17.70;99.90
7972;DHT22;4031;49.758;6.120;2023-07-31T05:54:56;17.70;99.90
7972;DHT22;4031;49.758;6.120;2023-07-31T05:57:22;17.80;99.90
7972;DHT22;4031;49.758;6.120;2023-07-31T05:59:48;18.10;99.90
7972;DHT22;4031;49.758;6.120;2023-07-31T06:02:14;18.10;99.90
7972;DHT22;4031;49.758;6.120;2023-07-31T06:04:39;18.20;99.90
7972;DHT22;4031;49.758;6.120;2023-07-31T06:07:05;18.30;99.90
7972;DHT22;4031;49.758;6.120;2023-07-31T06:09:31;18.50;99.90
7972;DHT22;4031;49.758;6.120;2023-07-31T06:11:57;18.70;99.90
7972;DHT22;4031;49.758;6.120;2023-07-31T06:14:22;18.80;99.90
7972;DHT22;4031;49.758;6.120;2023-07-31T06:16:48;18.90;99.90
7972;DHT22;4031;49.758;6.120;2023-07-31T06:19:14;19.10;99.90
7972;DHT22;4031;49.758;6.120;2023-07-31T06:21:39;19.00;99.90
7972;DHT22;4031;49.758;6.120;2023-07-31T06:24:07;18.90;99.90
7972;DHT22;4031;49.758;6.120;2023-07-31T06:26:33;18.80;99.90
7972;DHT22;4031;49.758;6.120;2023-07-31T06:28:59;18.60;99.90
7972;DHT22;4031;49.758;6.120;2023-07-31T06:31:24;18.50;99.90
7972;DHT22;4031;49.758;6.120;2023-07-31T06:33:52;18.40;99.90
7972;DHT22;4031;49.758;6.120;2023-07-31T06:36:18;18.40;99.90
7972;DHT22;4031;49.758;6.120;2023-07-31T06:38:44;18.40;99.90
7972;DHT22;4031;49.758;6.120;2023-07-31T06:41:09;18.60;99.90
7972;DHT22;4031;49.758;6.120;2023-07-31T06:43:36;18.80;99.90
7972;DHT22;4031;49.758;6.120;2023-07-31T06:46:06;18.90;99.90
7972;DHT22;4031;49.758;6.120;2023-07-31T06:48:35;19.00;99.90
7972;DHT22;4031;49.758;6.120;2023-07-31T06:51:02;19.00;99.90
7972;DHT22;4031;49.758;6.120;2023-07-31T06:53:28;19.10;99.90
7972;DHT22;4031;49.758;6.120;2023-07-31T06:55:54;19.30;99.90
7972;DHT22;4031;49.758;6.120;2023-07-31T06:58:20;19.70;99.90
7972;DHT22;4031;49.758;6.120;2023-07-31T07:00:46;19.80;99.90
7972;DHT22;4031;49.758;6.120;2023-07-31T07:03:11;19.70;99.90
7972;DHT22;4031;49.758;6.120;2023-07-31T07:05:40;19.60;99.90
7972;DHT22;4031;49.758;6.120;2023-07-31T07:08:06;19.70;99.90
7972;DHT22;4031;49.758;6.120;2023-07-31T07:10:31;19.80;99.90
7972;DHT22;4031;49.758;6.120;2023-07-31T07:12:57;20.10;99.90
7972;DHT22;4031;49.758;6.120;2023-07-31T07:15:23;20.10;99.90
7972;DHT22;4031;49.758;6.120;2023-07-31T07:17:48;20.10;99.90
7972;DHT22;4031;49.758;6.120;2023-07-31T07:20:14;20.10;99.90
7972;DHT22;4031;49.758;6.120;2023-07-31T07:22:40;20.10;99.90
7972;DHT22;4031;49.758;6.120;2023-07-31T07:25:08;20.50;99.90
7972;DHT22;4031;49.758;6.120;2023-07-31T07:27:34;21.10;99.90
7972;DHT22;4031;49.758;6.120;2023-07-31T07:30:00;21.40;99.90
7972;DHT22;4031;49.758;6.120;2023-07-31T07:32:26;21.60;99.90
7972;DHT22;4031;49.758;6.120;2023-07-31T07:34:52;22.00;99.90
7972;DHT22;4031;49.758;6.120;2023-07-31T07:37:18;22.40;99.90
7972;DHT22;4031;49.758;6.120;2023-07-31T07:39:44;22.60;99.90
7972;DHT22;4031;49.758;6.120;2023-07-31T07:42:10;22.80;99.90
7972;DHT22;4031;49.758;6.120;2023-07-31T07:44:35;23.30;99.90
7972;DHT22;4031;49.758;6.120;2023-07-31T07:47:01;23.90;99.90
7972;DHT22;4031;49.758;6.120;2023-07-31T07:49:27;24.10;99.90
7972;DHT22;4031;49.758;6.120;2023-07-31T07:51:53;24.10;99.90
7972;DHT22;4031;49.758;6.120;2023-07-31T07:54:18;23.40;99.90
7972;DHT22;4031;49.758;6.120;2023-07-31T07:56:46;23.50;99.90
7972;DHT22;4031;49.758;6.120;2023-07-31T07:59:12;23.70;99.90
7972;DHT22;4031;49.758;6.120;2023-07-31T08:01:37;24.10;99.90
7972;DHT22;4031;49.758;6.120;2023-07-31T08:04:03;24.20;99.90
7972;DHT22;4031;49.758;6.120;2023-07-31T08:06:29;24.40;99.90
7972;DHT22;4031;49.758;6.120;2023-07-31T08:08:55;24.10;99.90
7972;DHT22;4031;49.758;6.120;2023-07-31T08:11:21;23.60;99.90
7972;DHT22;4031;49.758;6.120;2023-07-31T08:13:49;23.40;99.90
7972;DHT22;4031;49.758;6.120;2023-07-31T08:16:15;23.30;99.90
7972;DHT22;4031;49.758;6.120;2023-07-31T08:18:41;22.80;99.90
7972;DHT22;4031;49.758;6.120;2023-07-31T08:21:08;22.40;99.90
7972;DHT22;4031;49.758;6.120;2023-07-31T08:23:33;21.90;99.90
7972;DHT22;4031;49.758;6.120;2023-07-31T08:25:59;21.60;99.90
7972;DHT22;4031;49.758;6.120;2023-07-31T08:28:25;21.30;99.90
7972;DHT22;4031;49.758;6.120;2023-07-31T08:30:51;21.00;99.90
7972;DHT22;4031;49.758;6.120;2023-07-31T08:33:16;20.60;99.90
7972;DHT22;4031;49.758;6.120;2023-07-31T08:35:42;20.50;99.90
7972;DHT22;4031;49.758;6.120;2023-07-31T08:38:08;20.50;99.90
7972;DHT22;4031;49.758;6.120;2023-07-31T08:40:36;20.40;99.90
7972;DHT22;4031;49.758;6.120;2023-07-31T08:43:03;20.40;99.90
7972;DHT22;4031;49.758;6.120;2023-07-31T08:45:30;20.70;99.90
7972;DHT22;4031;49.758;6.120;2023-07-31T08:47:56;20.90;99.90
7972;DHT22;4031;49.758;6.120;2023-07-31T08:50:22;21.20;99.90
7972;DHT22;4031;49.758;6.120;2023-07-31T08:52:50;21.30;99.90
7972;DHT22;4031;49.758;6.120;2023-07-31T08:55:16;21.50;99.90
7972;DHT22;4031;49.758;6.120;2023-07-31T08:57:43;21.60;99.90
7972;DHT22;4031;49.758;6.120;2023-07-31T09:00:10;21.70;99.90
7972;DHT22;4031;49.758;6.120;2023-07-31T09:02:56;21.90;99.90
7972;DHT22;4031;49.758;6.120;2023-07-31T09:05:30;21.90;99.90
7972;DHT22;4031;49.758;6.120;2023-07-31T09:07:57;21.90;99.90
7972;DHT22;4031;49.758;6.120;2023-07-31T09:10:23;21.70;99.90
7972;DHT22;4031;49.758;6.120;2023-07-31T09:12:51;21.60;99.90
7972;DHT22;4031;49.758;6.120;2023-07-31T09:15:17;21.50;99.90
7972;DHT22;4031;49.758;6.120;2023-07-31T09:17:44;21.50;99.90
7972;DHT22;4031;49.758;6.120;2023-07-31T09:20:17;21.40;99.90
7972;DHT22;4031;49.758;6.120;2023-07-31T09:22:44;21.40;99.90
7972;DHT22;4031;49.758;6.120;2023-07-31T09:25:23;21.50;99.90
7972;DHT22;4031;49.758;6.120;2023-07-31T09:27:55;21.50;99.90
7972;DHT22;4031;49.758;6.120;2023-07-31T09:30:21;21.70;99.90
7972;DHT22;4031;49.758;6.120;2023-07-31T09:32:48;21.90;99.90
7972;DHT22;4031;49.758;6.120;2023-07-31T09:35:27;22.20;99.90
7972;DHT22;4031;49.758;6.120;2023-07-31T09:37:59;22.10;99.90
7972;DHT22;4031;49.758;6.120;2023-07-31T09:40:30;22.00;99.90
7972;DHT22;4031;49.758;6.120;2023-07-31T09:43:02;21.60;99.90
7972;DHT22;4031;49.758;6.120;2023-07-31T09:45:30;21.40;99.90
7972;DHT22;4031;49.758;6.120;2023-07-31T09:47:59;21.20;99.90
7972;DHT22;4031;49.758;6.120;2023-07-31T09:50:25;20.90;99.90
7972;DHT22;4031;49.758;6.120;2023-07-31T09:52:51;20.60;99.90
7972;DHT22;4031;49.758;6.120;2023-07-31T09:55:18;20.30;99.90
7972;DHT22;4031;49.758;6.120;2023-07-31T09:57:46;20.10;99.90
7972;DHT22;4031;49.758;6.120;2023-07-31T10:00:14;19.90;99.90
7972;DHT22;4031;49.758;6.120;2023-07-31T10:02:45;19.80;99.90
7972;DHT22;4031;49.758;6.120;2023-07-31T10:05:13;19.70;99.90
7972;DHT22;4031;49.758;6.120;2023-07-31T10:07:51;19.80;99.90
7972;DHT22;4031;49.758;6.120;2023-07-31T10:10:21;19.70;99.90
7972;DHT22;4031;49.758;6.120;2023-07-31T10:12:52;19.70;99.90
7972;DHT22;4031;49.758;6.120;2023-07-31T10:15:19;19.90;99.90
7972;DHT22;4031;49.758;6.120;2023-07-31T10:17:47;20.30;99.90
7972;DHT22;4031;49.758;6.120;2023-07-31T10:20:14;20.60;99.90
7972;DHT22;4031;49.758;6.120;2023-07-31T10:22:44;20.80;99.90
7972;DHT22;4031;49.758;6.120;2023-07-31T10:25:13;20.90;99.90
7972;DHT22;4031;49.758;6.120;2023-07-31T10:27:40;21.20;99.90
7972;DHT22;4031;49.758;6.120;2023-07-31T10:30:09;21.60;99.90
7972;DHT22;4031;49.758;6.120;2023-07-31T10:32:39;21.70;99.90
7972;DHT22;4031;49.758;6.120;2023-07-31T10:35:07;21.80;99.90
7972;DHT22;4031;49.758;6.120;2023-07-31T10:37:40;21.70;99.90
7972;DHT22;4031;49.758;6.120;2023-07-31T10:40:23;21.70;99.90
7972;DHT22;4031;49.758;6.120;2023-07-31T10:42:52;21.50;99.90
7972;DHT22;4031;49.758;6.120;2023-07-31T10:47:59;21.30;99.90
7972;DHT22;4031;49.758;6.120;2023-07-31T10:50:26;20.70;99.90
7972;DHT22;4031;49.758;6.120;2023-07-31T10:52:54;20.20;99.90
7972;DHT22;4031;49.758;6.120;2023-07-31T10:55:30;19.90;99.90
7972;DHT22;4031;49.758;6.120;2023-07-31T10:58:07;19.70;99.90
7972;DHT22;4031;49.758;6.120;2023-07-31T11:00:43;19.50;99.90
7972;DHT22;4031;49.758;6.120;2023-07-31T11:03:17;19.30;99.90
7972;DHT22;4031;49.758;6.120;2023-07-31T11:05:51;19.10;99.90
7972;DHT22;4031;49.758;6.120;2023-07-31T11:08:23;19.00;99.90
7972;DHT22;4031;49.758;6.120;2023-07-31T11:13:51;19.60;99.90
7972;DHT22;4031;49.758;6.120;2023-07-31T11:16:24;20.20;99.90
7972;DHT22;4031;49.758;6.120;2023-07-31T11:18:51;20.50;99.90
7972;DHT22;4031;49.758;6.120;2023-07-31T11:21:23;20.60;99.90
7972;DHT22;4031;49.758;6.120;2023-07-31T11:23:52;20.50;99.90
7972;DHT22;4031;49.758;6.120;2023-07-31T11:26:19;20.60;99.90
7972;DHT22;4031;49.758;6.120;2023-07-31T11:28:49;20.80;99.90
7972;DHT22;4031;49.758;6.120;2023-07-31T11:31:16;20.80;99.90
7972;DHT22;4031;49.758;6.120;2023-07-31T11:33:45;20.90;99.90
7972;DHT22;4031;49.758;6.120;2023-07-31T11:36:15;20.70;99.90
7972;DHT22;4031;49.758;6.120;2023-07-31T11:38:42;20.40;99.90
7972;DHT22;4031;49.758;6.120;2023-07-31T11:41:08;20.00;99.90
7972;DHT22;4031;49.758;6.120;2023-07-31T11:43:34;19.60;99.90
7972;DHT22;4031;49.758;6.120;2023-07-31T11:46:02;19.40;99.90
7972;DHT22;4031;49.758;6.120;2023-07-31T11:48:29;19.20;99.90
7972;DHT22;4031;49.758;6.120;2023-07-31T11:51:01;19.10;99.90
7972;DHT22;4031;49.758;6.120;2023-07-31T11:53:38;18.60;99.90
7972;DHT22;4031;49.758;6.120;2023-07-31T11:56:06;18.10;99.90
7972;DHT22;4031;49.758;6.120;2023-07-31T11:58:34;17.80;99.90
7972;DHT22;4031;49.758;6.120;2023-07-31T12:01:00;17.60;99.90
7972;DHT22;4031;49.758;6.120;2023-07-31T12:03:26;17.50;99.90
7972;DHT22;4031;49.758;6.120;2023-07-31T12:05:55;17.50;99.90
7972;DHT22;4031;49.758;6.120;2023-07-31T12:08:23;17.70;99.90
7972;DHT22;4031;49.758;6.120;2023-07-31T12:10:54;17.90;99.90
7972;DHT22;4031;49.758;6.120;2023-07-31T12:13:24;18.10;99.90
7972;DHT22;4031;49.758;6.120;2023-07-31T12:15:56;18.40;99.90
7972;DHT22;4031;49.758;6.120;2023-07-31T12:18:28;18.60;99.90
7972;DHT22;4031;49.758;6.120;2023-07-31T12:20:59;18.70;99.90
7972;DHT22;4031;49.758;6.120;2023-07-31T12:23:27;18.90;99.90
7972;DHT22;4031;49.758;6.120;2023-07-31T12:26:04;19.00;99.90
7972;DHT22;4031;49.758;6.120;2023-07-31T12:31:10;19.40;99.90
7972;DHT22;4031;49.758;6.120;2023-07-31T12:33:38;19.80;99.90
7972;DHT22;4031;49.758;6.120;2023-07-31T12:36:12;20.20;99.90
7972;DHT22;4031;49.758;6.120;2023-07-31T12:38:40;20.70;99.90
7972;DHT22;4031;49.758;6.120;2023-07-31T12:41:06;21.10;99.90
7972;DHT22;4031;49.758;6.120;2023-07-31T12:43:33;21.60;99.90
7972;DHT22;4031;49.758;6.120;2023-07-31T12:46:02;21.70;99.90
7972;DHT22;4031;49.758;6.120;2023-07-31T12:48:28;21.80;99.90
7972;DHT22;4031;49.758;6.120;2023-07-31T12:50:54;21.50;99.90
7972;DHT22;4031;49.758;6.120;2023-07-31T12:53:20;21.50;99.90
7972;DHT22;4031;49.758;6.120;2023-07-31T12:55:46;21.60;99.90
7972;DHT22;4031;49.758;6.120;2023-07-31T12:58:12;21.40;99.90
7972;DHT22;4031;49.758;6.120;2023-07-31T13:00:38;21.10;99.90
7972;DHT22;4031;49.758;6.120;2023-07-31T13:03:04;20.70;99.90
7972;DHT22;4031;49.758;6.120;2023-07-31T13:05:30;20.40;99.90
7972;DHT22;4031;49.758;6.120;2023-07-31T13:07:55;20.20;99.90
7972;DHT22;4031;49.758;6.120;2023-07-31T13:10:22;20.00;99.90
7972;DHT22;4031;49.758;6.120;2023-07-31T13:12:49;20.00;99.90
7972;DHT22;4031;49.758;6.120;2023-07-31T13:15:14;19.90;99.90
7972;DHT22;4031;49.758;6.120;2023-07-31T13:17:40;19.90;99.90
7972;DHT22;4031;49.758;6.120;2023-07-31T13:20:06;19.80;99.90
7972;DHT22;4031;49.758;6.120;2023-07-31T13:22:33;19.90;99.90
7972;DHT22;4031;49.758;6.120;2023-07-31T13:24:59;19.80;99.90
7972;DHT22;4031;49.758;6.120;2023-07-31T13:27:25;19.80;99.90
7972;DHT22;4031;49.758;6.120;2023-07-31T13:29:51;19.80;99.90
7972;DHT22;4031;49.758;6.120;2023-07-31T13:32:18;19.80;99.90
7972;DHT22;4031;49.758;6.120;2023-07-31T13:34:46;19.80;99.90
7972;DHT22;4031;49.758;6.120;2023-07-31T13:37:12;19.70;99.90
7972;DHT22;4031;49.758;6.120;2023-07-31T13:39:38;19.60;99.90
7972;DHT22;4031;49.758;6.120;2023-07-31T13:42:04;19.50;99.90
7972;DHT22;4031;49.758;6.120;2023-07-31T13:44:37;19.40;99.90
7972;DHT22;4031;49.758;6.120;2023-07-31T13:47:03;19.30;99.90
7972;DHT22;4031;49.758;6.120;2023-07-31T13:49:29;19.30;99.90
7972;DHT22;4031;49.758;6.120;2023-07-31T13:51:55;19.30;99.90
7972;DHT22;4031;49.758;6.120;2023-07-31T13:54:25;19.20;99.90
7972;DHT22;4031;49.758;6.120;2023-07-31T13:56:51;19.20;99.90
7972;DHT22;4031;49.758;6.120;2023-07-31T13:59:17;19.30;99.90
7972;DHT22;4031;49.758;6.120;2023-07-31T14:01:44;19.20;99.90
7972;DHT22;4031;49.758;6.120;2023-07-31T14:04:10;18.90;99.90
7972;DHT22;4031;49.758;6.120;2023-07-31T14:06:36;18.60;99.90
7972;DHT22;4031;49.758;6.120;2023-07-31T14:09:02;18.50;99.90
7972;DHT22;4031;49.758;6.120;2023-07-31T14:11:28;18.40;99.90
7972;DHT22;4031;49.758;6.120;2023-07-31T14:13:55;18.20;99.90
7972;DHT22;4031;49.758;6.120;2023-07-31T14:16:21;18.20;99.90
7972;DHT22;4031;49.758;6.120;2023-07-31T14:18:47;18.10;99.90
7972;DHT22;4031;49.758;6.120;2023-07-31T14:21:13;18.10;99.90
7972;DHT22;4031;49.758;6.120;2023-07-31T14:23:39;18.20;99.90
7972;DHT22;4031;49.758;6.120;2023-07-31T14:26:06;18.30;99.90
7972;DHT22;4031;49.758;6.120;2023-07-31T14:28:32;18.60;99.90
7972;DHT22;4031;49.758;6.120;2023-07-31T14:30:58;19.10;99.90
7972;DHT22;4031;49.758;6.120;2023-07-31T14:33:23;19.50;99.90
7972;DHT22;4031;49.758;6.120;2023-07-31T14:35:49;19.60;99.90
7972;DHT22;4031;49.758;6.120;2023-07-31T14:38:15;19.50;99.90
7972;DHT22;4031;49.758;6.120;2023-07-31T14:40:41;19.40;99.90
7972;DHT22;4031;49.758;6.120;2023-07-31T14:43:07;19.10;99.90
7972;DHT22;4031;49.758;6.120;2023-07-31T14:45:33;18.90;99.90
7972;DHT22;4031;49.758;6.120;2023-07-31T14:47:58;18.60;99.90
7972;DHT22;4031;49.758;6.120;2023-07-31T14:50:25;18.50;99.90
7972;DHT22;4031;49.758;6.120;2023-07-31T14:52:51;18.40;99.90
7972;DHT22;4031;49.758;6.120;2023-07-31T14:55:18;18.30;99.90
7972;DHT22;4031;49.758;6.120;2023-07-31T14:57:44;18.30;99.90
7972;DHT22;4031;49.758;6.120;2023-07-31T15:00:10;18.20;99.90
7972;DHT22;4031;49.758;6.120;2023-07-31T15:02:39;18.20;99.90
7972;DHT22;4031;49.758;6.120;2023-07-31T15:05:06;18.00;99.90
7972;DHT22;4031;49.758;6.120;2023-07-31T15:07:32;17.80;99.90
7972;DHT22;4031;49.758;6.120;2023-07-31T15:09:58;17.70;99.90
7972;DHT22;4031;49.758;6.120;2023-07-31T15:12:25;17.60;99.90
7972;DHT22;4031;49.758;6.120;2023-07-31T15:14:51;17.60;99.90
7972;DHT22;4031;49.758;6.120;2023-07-31T15:17:17;17.50;99.90
7972;DHT22;4031;49.758;6.120;2023-07-31T15:19:43;17.50;99.90
7972;DHT22;4031;49.758;6.120;2023-07-31T15:22:09;17.50;99.90
7972;DHT22;4031;49.758;6.120;2023-07-31T15:24:34;17.50;99.90
7972;DHT22;4031;49.758;6.120;2023-07-31T15:27:00;17.50;99.90
7972;DHT22;4031;49.758;6.120;2023-07-31T15:29:28;17.60;99.90
7972;DHT22;4031;49.758;6.120;2023-07-31T15:31:54;17.60;99.90
7972;DHT22;4031;49.758;6.120;2023-07-31T15:34:20;17.70;99.90
7972;DHT22;4031;49.758;6.120;2023-07-31T15:36:46;17.60;99.90
7972;DHT22;4031;49.758;6.120;2023-07-31T15:39:12;17.60;99.90
7972;DHT22;4031;49.758;6.120;2023-07-31T15:41:38;17.60;99.90
7972;DHT22;4031;49.758;6.120;2023-07-31T15:44:05;17.70;99.90
7972;DHT22;4031;49.758;6.120;2023-07-31T15:46:31;17.70;99.90
7972;DHT22;4031;49.758;6.120;2023-07-31T15:48:56;17.60;99.90
7972;DHT22;4031;49.758;6.120;2023-07-31T15:51:23;17.60;99.90
7972;DHT22;4031;49.758;6.120;2023-07-31T15:53:49;17.60;99.90
7972;DHT22;4031;49.758;6.120;2023-07-31T15:56:15;17.60;99.90
7972;DHT22;4031;49.758;6.120;2023-07-31T15:58:40;17.50;99.90
7972;DHT22;4031;49.758;6.120;2023-07-31T16:01:06;17.40;99.90
7972;DHT22;4031;49.758;6.120;2023-07-31T16:03:33;17.40;99.90
7972;DHT22;4031;49.758;6.120;2023-07-31T16:05:58;17.20;99.90
7972;DHT22;4031;49.758;6.120;2023-07-31T16:08:24;17.30;99.90
7972;DHT22;4031;49.758;6.120;2023-07-31T16:10:50;17.30;99.90
7972;DHT22;4031;49.758;6.120;2023-07-31T16:13:16;17.40;99.90
7972;DHT22;4031;49.758;6.120;2023-07-31T16:15:42;17.50;99.90